Marne, Ohio
Current Conditions -  °F | °C
As of 9:54 AM on Sunday 21 Dec 2014 (Local Time) from KVTA Reporting Station
Overcast Overcast  
Wind Chill: 31°   Ceiling: 2200
Heat Index: 31°   Visibility: 7mi
Dew Point: 22°   Wind: 0mph
Humidity: 69%   Direction: NA
Pressure: 30.33"   Gusts: NA
Location:  40.1181°N, 82.3726°W
Report Text: KVTA 211454Z AUTO 00000KT 7SM OVC022 M01/M06 A3033 RMK AO2 SLP279 T10061056 53007
Loading
Personal Weather Stations






























Interactive Weather Map New forecast layout! Learn more

10-Day Weather Forecast

Advertisements
Track Severe Weather on mobile